sensor_id;sensor_type;location;lat;lon;timestamp;temperature;humidity
22416;DHT22;12204;50.600;4.608;2022-09-09T00:00:06;25.10;64.30
22416;DHT22;12204;50.600;4.608;2022-09-09T00:05:21;25.10;63.90
22416;DHT22;12204;50.600;4.608;2022-09-09T00:10:33;25.00;63.10
22416;DHT22;12204;50.600;4.608;2022-09-09T00:15:49;25.00;63.60
22416;DHT22;12204;50.600;4.608;2022-09-09T00:21:04;25.10;63.70
22416;DHT22;12204;50.600;4.608;2022-09-09T00:26:14;25.00;64.10
22416;DHT22;12204;50.600;4.608;2022-09-09T00:31:27;25.10;64.20
22416;DHT22;12204;50.600;4.608;2022-09-09T00:36:35;25.10;64.00
22416;DHT22;12204;50.600;4.608;2022-09-09T00:41:53;25.00;63.10
22416;DHT22;12204;50.600;4.608;2022-09-09T00:47:21;25.00;63.60
22416;DHT22;12204;50.600;4.608;2022-09-09T00:52:47;25.10;63.60
22416;DHT22;12204;50.600;4.608;2022-09-09T00:58:00;25.00;63.80
22416;DHT22;12204;50.600;4.608;2022-09-09T01:03:30;25.00;63.50
22416;DHT22;12204;50.600;4.608;2022-09-09T01:09:10;25.10;63.50
22416;DHT22;12204;50.600;4.608;2022-09-09T01:14:29;25.00;63.60
22416;DHT22;12204;50.600;4.608;2022-09-09T01:19:55;25.00;63.80
22416;DHT22;12204;50.600;4.608;2022-09-09T01:31:39;25.10;62.90
22416;DHT22;12204;50.600;4.608;2022-09-09T01:36:47;25.00;63.60
22416;DHT22;12204;50.600;4.608;2022-09-09T01:41:58;25.10;64.00
22416;DHT22;12204;50.600;4.608;2022-09-09T01:47:02;25.10;64.00
22416;DHT22;12204;50.600;4.608;2022-09-09T01:52:07;25.10;64.50
22416;DHT22;12204;50.600;4.608;2022-09-09T01:57:18;25.10;63.70
22416;DHT22;12204;50.600;4.608;2022-09-09T02:02:30;25.10;63.70
22416;DHT22;12204;50.600;4.608;2022-09-09T02:07:47;25.10;63.40
22416;DHT22;12204;50.600;4.608;2022-09-09T02:13:09;25.10;62.80
22416;DHT22;12204;50.600;4.608;2022-09-09T02:18:21;25.10;63.30
22416;DHT22;12204;50.600;4.608;2022-09-09T02:23:29;25.10;62.10
22416;DHT22;12204;50.600;4.608;2022-09-09T02:28:38;25.10;63.10
22416;DHT22;12204;50.600;4.608;2022-09-09T02:33:46;25.00;63.40
22416;DHT22;12204;50.600;4.608;2022-09-09T02:38:54;25.00;62.70
22416;DHT22;12204;50.600;4.608;2022-09-09T02:44:05;25.00;63.00
22416;DHT22;12204;50.600;4.608;2022-09-09T02:49:18;25.00;62.80
22416;DHT22;12204;50.600;4.608;2022-09-09T02:54:28;25.00;62.00
22416;DHT22;12204;50.600;4.608;2022-09-09T02:59:38;25.00;62.80
22416;DHT22;12204;50.600;4.608;2022-09-09T03:04:44;25.00;62.80
22416;DHT22;12204;50.600;4.608;2022-09-09T03:09:53;25.00;62.80
22416;DHT22;12204;50.600;4.608;2022-09-09T03:15:01;25.00;63.10
22416;DHT22;12204;50.600;4.608;2022-09-09T03:20:06;25.00;63.00
22416;DHT22;12204;50.600;4.608;2022-09-09T03:25:12;25.00;63.00
22416;DHT22;12204;50.600;4.608;2022-09-09T03:30:18;25.00;62.70
22416;DHT22;12204;50.600;4.608;2022-09-09T03:35:22;25.00;62.60
22416;DHT22;12204;50.600;4.608;2022-09-09T03:40:27;24.90;62.50
22416;DHT22;12204;50.600;4.608;2022-09-09T03:45:31;25.00;64.00
22416;DHT22;12204;50.600;4.608;2022-09-09T03:50:35;24.90;62.90
22416;DHT22;12204;50.600;4.608;2022-09-09T03:55:39;25.00;63.00
22416;DHT22;12204;50.600;4.608;2022-09-09T04:00:53;25.00;63.50
22416;DHT22;12204;50.600;4.608;2022-09-09T04:05:59;24.90;62.90
22416;DHT22;12204;50.600;4.608;2022-09-09T04:11:06;24.90;62.90
22416;DHT22;12204;50.600;4.608;2022-09-09T04:16:13;24.90;62.80
22416;DHT22;12204;50.600;4.608;2022-09-09T04:21:18;24.90;62.40
22416;DHT22;12204;50.600;4.608;2022-09-09T04:26:23;24.90;62.40
22416;DHT22;12204;50.600;4.608;2022-09-09T04:31:28;24.90;62.20
22416;DHT22;12204;50.600;4.608;2022-09-09T04:36:32;24.90;62.40
22416;DHT22;12204;50.600;4.608;2022-09-09T04:41:39;24.90;62.60
22416;DHT22;12204;50.600;4.608;2022-09-09T04:46:45;24.90;63.00
22416;DHT22;12204;50.600;4.608;2022-09-09T04:51:49;24.80;62.40
22416;DHT22;12204;50.600;4.608;2022-09-09T04:56:53;24.80;62.90
22416;DHT22;12204;50.600;4.608;2022-09-09T05:01:59;24.80;62.80
22416;DHT22;12204;50.600;4.608;2022-09-09T05:07:03;24.80;62.60
22416;DHT22;12204;50.600;4.608;2022-09-09T05:12:08;24.80;63.10
22416;DHT22;12204;50.600;4.608;2022-09-09T05:17:19;24.80;62.80
22416;DHT22;12204;50.600;4.608;2022-09-09T05:22:23;24.80;63.00
22416;DHT22;12204;50.600;4.608;2022-09-09T05:27:28;24.80;62.80
22416;DHT22;12204;50.600;4.608;2022-09-09T05:32:35;24.80;62.40
22416;DHT22;12204;50.600;4.608;2022-09-09T05:37:39;24.80;63.00
22416;DHT22;12204;50.600;4.608;2022-09-09T05:42:42;24.80;63.10
22416;DHT22;12204;50.600;4.608;2022-09-09T05:47:51;24.80;63.60
22416;DHT22;12204;50.600;4.608;2022-09-09T05:52:57;24.80;62.90
22416;DHT22;12204;50.600;4.608;2022-09-09T05:58:01;24.80;62.80
22416;DHT22;12204;50.600;4.608;2022-09-09T06:03:06;24.80;62.50
22416;DHT22;12204;50.600;4.608;2022-09-09T06:08:10;24.80;62.80
22416;DHT22;12204;50.600;4.608;2022-09-09T06:13:13;24.80;62.70
22416;DHT22;12204;50.600;4.608;2022-09-09T06:18:18;24.80;62.50
22416;DHT22;12204;50.600;4.608;2022-09-09T06:23:22;24.80;63.10
22416;DHT22;12204;50.600;4.608;2022-09-09T06:28:26;24.80;62.30
22416;DHT22;12204;50.600;4.608;2022-09-09T06:33:33;24.80;62.50
22416;DHT22;12204;50.600;4.608;2022-09-09T06:38:38;24.80;62.40
22416;DHT22;12204;50.600;4.608;2022-09-09T06:43:42;24.80;62.40
22416;DHT22;12204;50.600;4.608;2022-09-09T06:48:48;24.80;62.50
22416;DHT22;12204;50.600;4.608;2022-09-09T06:53:53;24.80;62.90
22416;DHT22;12204;50.600;4.608;2022-09-09T06:59:00;24.80;62.90
22416;DHT22;12204;50.600;4.608;2022-09-09T07:04:08;24.60;61.30
22416;DHT22;12204;50.600;4.608;2022-09-09T07:09:16;24.30;60.90
22416;DHT22;12204;50.600;4.608;2022-09-09T07:14:22;24.20;60.90
22416;DHT22;12204;50.600;4.608;2022-09-09T07:19:34;24.10;60.60
22416;DHT22;12204;50.600;4.608;2022-09-09T07:24:40;24.00;60.60
22416;DHT22;12204;50.600;4.608;2022-09-09T07:29:43;24.00;60.70
22416;DHT22;12204;50.600;4.608;2022-09-09T07:34:49;24.00;60.90
22416;DHT22;12204;50.600;4.608;2022-09-09T07:39:53;24.00;61.20
22416;DHT22;12204;50.600;4.608;2022-09-09T07:44:57;24.00;60.50
22416;DHT22;12204;50.600;4.608;2022-09-09T07:50:03;23.90;60.50
22416;DHT22;12204;50.600;4.608;2022-09-09T07:55:07;23.80;60.60
22416;DHT22;12204;50.600;4.608;2022-09-09T08:00:13;23.80;60.80
22416;DHT22;12204;50.600;4.608;2022-09-09T08:05:25;23.80;61.70
22416;DHT22;12204;50.600;4.608;2022-09-09T08:10:29;24.00;62.40
22416;DHT22;12204;50.600;4.608;2022-09-09T08:15:34;24.10;62.30
22416;DHT22;12204;50.600;4.608;2022-09-09T08:20:40;24.20;62.10
22416;DHT22;12204;50.600;4.608;2022-09-09T08:25:44;24.20;62.70
22416;DHT22;12204;50.600;4.608;2022-09-09T08:30:48;24.20;62.50
22416;DHT22;12204;50.600;4.608;2022-09-09T08:35:54;24.30;62.40
22416;DHT22;12204;50.600;4.608;2022-09-09T08:41:07;24.30;62.60
22416;DHT22;12204;50.600;4.608;2022-09-09T08:46:59;24.30;62.90
22416;DHT22;12204;50.600;4.608;2022-09-09T08:52:12;24.40;63.20
22416;DHT22;12204;50.600;4.608;2022-09-09T08:57:23;24.40;63.00
22416;DHT22;12204;50.600;4.608;2022-09-09T09:02:39;24.40;63.40
22416;DHT22;12204;50.600;4.608;2022-09-09T09:07:59;24.40;63.50
22416;DHT22;12204;50.600;4.608;2022-09-09T09:13:17;24.40;63.50
22416;DHT22;12204;50.600;4.608;2022-09-09T09:18:27;24.40;63.90
22416;DHT22;12204;50.600;4.608;2022-09-09T09:23:39;24.40;63.60
22416;DHT22;12204;50.600;4.608;2022-09-09T09:28:48;24.40;63.70
22416;DHT22;12204;50.600;4.608;2022-09-09T09:33:53;24.40;63.70
22416;DHT22;12204;50.600;4.608;2022-09-09T09:39:04;24.40;63.70
22416;DHT22;12204;50.600;4.608;2022-09-09T09:44:32;24.40;63.60
22416;DHT22;12204;50.600;4.608;2022-09-09T09:49:52;24.40;63.70
22416;DHT22;12204;50.600;4.608;2022-09-09T09:54:59;24.40;63.60
22416;DHT22;12204;50.600;4.608;2022-09-09T10:00:14;24.40;63.80
22416;DHT22;12204;50.600;4.608;2022-09-09T10:05:29;24.40;63.90
22416;DHT22;12204;50.600;4.608;2022-09-09T10:11:10;24.40;64.10
22416;DHT22;12204;50.600;4.608;2022-09-09T10:16:45;24.40;64.30
22416;DHT22;12204;50.600;4.608;2022-09-09T10:22:04;24.40;64.30
22416;DHT22;12204;50.600;4.608;2022-09-09T10:27:27;24.40;64.30
22416;DHT22;12204;50.600;4.608;2022-09-09T10:32:41;24.40;64.40
22416;DHT22;12204;50.600;4.608;2022-09-09T10:38:12;24.40;64.50
22416;DHT22;12204;50.600;4.608;2022-09-09T10:43:25;24.40;64.40
22416;DHT22;12204;50.600;4.608;2022-09-09T10:48:55;24.40;64.50
22416;DHT22;12204;50.600;4.608;2022-09-09T10:54:29;24.40;64.60
22416;DHT22;12204;50.600;4.608;2022-09-09T10:59:48;24.40;64.80
22416;DHT22;12204;50.600;4.608;2022-09-09T11:05:03;24.40;64.50
22416;DHT22;12204;50.600;4.608;2022-09-09T11:10:21;24.40;64.60
22416;DHT22;12204;50.600;4.608;2022-09-09T11:15:35;24.40;64.50
22416;DHT22;12204;50.600;4.608;2022-09-09T11:20:43;24.40;64.40
22416;DHT22;12204;50.600;4.608;2022-09-09T11:25:50;24.40;64.50
22416;DHT22;12204;50.600;4.608;2022-09-09T11:31:13;24.40;64.40
22416;DHT22;12204;50.600;4.608;2022-09-09T11:36:51;24.40;64.30
22416;DHT22;12204;50.600;4.608;2022-09-09T11:42:16;24.40;64.40
22416;DHT22;12204;50.600;4.608;2022-09-09T11:47:27;24.40;64.50
22416;DHT22;12204;50.600;4.608;2022-09-09T11:52:38;24.40;64.50
22416;DHT22;12204;50.600;4.608;2022-09-09T11:57:47;24.40;64.50
22416;DHT22;12204;50.600;4.608;2022-09-09T12:02:52;24.40;64.60
22416;DHT22;12204;50.600;4.608;2022-09-09T12:07:58;24.40;64.70
22416;DHT22;12204;50.600;4.608;2022-09-09T12:13:15;24.40;65.00
22416;DHT22;12204;50.600;4.608;2022-09-09T12:18:24;24.40;64.80
22416;DHT22;12204;50.600;4.608;2022-09-09T12:23:37;24.50;64.80
22416;DHT22;12204;50.600;4.608;2022-09-09T12:28:54;24.50;64.80
22416;DHT22;12204;50.600;4.608;2022-09-09T12:34:15;24.50;64.90
22416;DHT22;12204;50.600;4.608;2022-09-09T12:39:28;24.50;64.70
22416;DHT22;12204;50.600;4.608;2022-09-09T12:44:35;24.50;64.70
22416;DHT22;12204;50.600;4.608;2022-09-09T12:49:41;24.40;64.70
22416;DHT22;12204;50.600;4.608;2022-09-09T12:54:47;24.40;64.70
22416;DHT22;12204;50.600;4.608;2022-09-09T13:00:04;24.40;64.60
22416;DHT22;12204;50.600;4.608;2022-09-09T13:05:16;24.40;64.50
22416;DHT22;12204;50.600;4.608;2022-09-09T13:10:26;24.40;64.60
22416;DHT22;12204;50.600;4.608;2022-09-09T13:15:49;24.40;64.70
22416;DHT22;12204;50.600;4.608;2022-09-09T13:20:57;24.40;64.50
22416;DHT22;12204;50.600;4.608;2022-09-09T13:26:04;24.40;65.20
22416;DHT22;12204;50.600;4.608;2022-09-09T13:31:21;24.40;64.60
22416;DHT22;12204;50.600;4.608;2022-09-09T13:36:32;24.50;64.20
22416;DHT22;12204;50.600;4.608;2022-09-09T13:41:43;24.40;64.20
22416;DHT22;12204;50.600;4.608;2022-09-09T13:46:48;24.40;64.00
22416;DHT22;12204;50.600;4.608;2022-09-09T13:52:13;24.50;63.90
22416;DHT22;12204;50.600;4.608;2022-09-09T13:57:21;24.40;63.60
22416;DHT22;12204;50.600;4.608;2022-09-09T14:02:27;24.40;63.60
22416;DHT22;12204;50.600;4.608;2022-09-09T14:07:32;24.50;63.50
22416;DHT22;12204;50.600;4.608;2022-09-09T14:12:35;24.50;63.30
22416;DHT22;12204;50.600;4.608;2022-09-09T14:17:39;24.50;63.30
22416;DHT22;12204;50.600;4.608;2022-09-09T14:22:44;24.50;63.30
22416;DHT22;12204;50.600;4.608;2022-09-09T14:27:47;24.50;63.30
22416;DHT22;12204;50.600;4.608;2022-09-09T14:32:53;24.50;63.20
22416;DHT22;12204;50.600;4.608;2022-09-09T14:37:57;24.50;63.00
22416;DHT22;12204;50.600;4.608;2022-09-09T14:43:03;24.60;62.90
22416;DHT22;12204;50.600;4.608;2022-09-09T14:48:07;24.60;62.90
22416;DHT22;12204;50.600;4.608;2022-09-09T14:53:12;24.60;62.90
22416;DHT22;12204;50.600;4.608;2022-09-09T14:58:15;24.60;62.80
22416;DHT22;12204;50.600;4.608;2022-09-09T15:03:19;24.50;62.60
22416;DHT22;12204;50.600;4.608;2022-09-09T15:08:25;24.50;63.30
22416;DHT22;12204;50.600;4.608;2022-09-09T15:13:28;24.50;62.40
22416;DHT22;12204;50.600;4.608;2022-09-09T15:18:33;24.50;62.50
22416;DHT22;12204;50.600;4.608;2022-09-09T15:23:39;24.40;62.00
22416;DHT22;12204;50.600;4.608;2022-09-09T15:28:44;24.10;62.80
22416;DHT22;12204;50.600;4.608;2022-09-09T15:33:50;24.10;64.30
22416;DHT22;12204;50.600;4.608;2022-09-09T15:38:57;24.40;63.80
22416;DHT22;12204;50.600;4.608;2022-09-09T15:44:01;24.60;63.90
22416;DHT22;12204;50.600;4.608;2022-09-09T15:49:07;24.60;64.40
22416;DHT22;12204;50.600;4.608;2022-09-09T15:54:15;24.40;65.40
22416;DHT22;12204;50.600;4.608;2022-09-09T15:59:23;24.30;65.60
22416;DHT22;12204;50.600;4.608;2022-09-09T16:04:28;24.10;65.60
22416;DHT22;12204;50.600;4.608;2022-09-09T16:09:34;24.10;65.00
22416;DHT22;12204;50.600;4.608;2022-09-09T16:14:38;24.00;65.10
22416;DHT22;12204;50.600;4.608;2022-09-09T16:19:42;24.10;64.90
22416;DHT22;12204;50.600;4.608;2022-09-09T16:24:49;24.10;64.70
22416;DHT22;12204;50.600;4.608;2022-09-09T16:29:52;24.00;63.80
22416;DHT22;12204;50.600;4.608;2022-09-09T16:34:56;23.90;64.00
22416;DHT22;12204;50.600;4.608;2022-09-09T16:40:01;23.90;63.70
22416;DHT22;12204;50.600;4.608;2022-09-09T16:45:08;24.00;64.30
22416;DHT22;12204;50.600;4.608;2022-09-09T16:50:12;24.10;64.20
22416;DHT22;12204;50.600;4.608;2022-09-09T16:55:17;24.20;64.20
22416;DHT22;12204;50.600;4.608;2022-09-09T17:00:22;24.30;64.40
22416;DHT22;12204;50.600;4.608;2022-09-09T17:05:26;24.40;64.80
22416;DHT22;12204;50.600;4.608;2022-09-09T17:10:31;24.40;64.70
22416;DHT22;12204;50.600;4.608;2022-09-09T17:15:39;24.50;65.10
22416;DHT22;12204;50.600;4.608;2022-09-09T17:20:44;24.50;64.90
22416;DHT22;12204;50.600;4.608;2022-09-09T17:25:57;24.50;64.90
22416;DHT22;12204;50.600;4.608;2022-09-09T17:31:02;24.60;64.80
22416;DHT22;12204;50.600;4.608;2022-09-09T17:36:09;24.50;64.40
22416;DHT22;12204;50.600;4.608;2022-09-09T17:41:17;24.50;64.30
22416;DHT22;12204;50.600;4.608;2022-09-09T17:46:24;24.50;64.10
22416;DHT22;12204;50.600;4.608;2022-09-09T17:51:30;24.50;64.20
22416;DHT22;12204;50.600;4.608;2022-09-09T17:56:38;24.50;64.00
22416;DHT22;12204;50.600;4.608;2022-09-09T18:01:44;24.40;63.90
22416;DHT22;12204;50.600;4.608;2022-09-09T18:06:52;24.40;63.80
22416;DHT22;12204;50.600;4.608;2022-09-09T18:11:58;24.40;63.80
22416;DHT22;12204;50.600;4.608;2022-09-09T18:17:03;24.40;64.10
22416;DHT22;12204;50.600;4.608;2022-09-09T18:22:07;24.50;65.30
22416;DHT22;12204;50.600;4.608;2022-09-09T18:27:11;24.50;67.50
22416;DHT22;12204;50.600;4.608;2022-09-09T18:32:15;24.50;68.80
22416;DHT22;12204;50.600;4.608;2022-09-09T18:37:20;24.50;69.00
22416;DHT22;12204;50.600;4.608;2022-09-09T18:42:25;24.50;68.80
22416;DHT22;12204;50.600;4.608;2022-09-09T18:47:29;24.50;68.80
22416;DHT22;12204;50.600;4.608;2022-09-09T18:52:32;24.50;68.90
22416;DHT22;12204;50.600;4.608;2022-09-09T18:57:37;24.50;68.90
22416;DHT22;12204;50.600;4.608;2022-09-09T19:02:42;24.50;69.00
22416;DHT22;12204;50.600;4.608;2022-09-09T19:07:45;24.50;68.90
22416;DHT22;12204;50.600;4.608;2022-09-09T19:12:50;24.50;68.70
22416;DHT22;12204;50.600;4.608;2022-09-09T19:17:54;24.50;68.80
22416;DHT22;12204;50.600;4.608;2022-09-09T19:22:57;24.50;68.60
22416;DHT22;12204;50.600;4.608;2022-09-09T19:28:03;24.50;68.30
22416;DHT22;12204;50.600;4.608;2022-09-09T19:33:06;24.50;68.00
22416;DHT22;12204;50.600;4.608;2022-09-09T19:38:10;24.50;67.80
22416;DHT22;12204;50.600;4.608;2022-09-09T19:43:15;24.50;67.70
22416;DHT22;12204;50.600;4.608;2022-09-09T19:48:18;24.50;67.40
22416;DHT22;12204;50.600;4.608;2022-09-09T19:53:22;24.50;67.60
22416;DHT22;12204;50.600;4.608;2022-09-09T19:58:27;24.50;67.70
22416;DHT22;12204;50.600;4.608;2022-09-09T20:03:31;24.50;67.60
22416;DHT22;12204;50.600;4.608;2022-09-09T20:08:36;24.50;67.70
22416;DHT22;12204;50.600;4.608;2022-09-09T20:13:43;24.50;67.70
22416;DHT22;12204;50.600;4.608;2022-09-09T20:18:48;24.40;67.80
22416;DHT22;12204;50.600;4.608;2022-09-09T20:23:53;24.50;67.80
22416;DHT22;12204;50.600;4.608;2022-09-09T20:28:59;24.50;67.80
22416;DHT22;12204;50.600;4.608;2022-09-09T20:34:06;24.50;67.80
22416;DHT22;12204;50.600;4.608;2022-09-09T20:39:13;24.50;67.90
22416;DHT22;12204;50.600;4.608;2022-09-09T20:44:21;24.50;67.90
22416;DHT22;12204;50.600;4.608;2022-09-09T20:49:25;24.60;67.90
22416;DHT22;12204;50.600;4.608;2022-09-09T20:54:31;24.50;67.90
22416;DHT22;12204;50.600;4.608;2022-09-09T20:59:37;24.50;68.00
22416;DHT22;12204;50.600;4.608;2022-09-09T21:04:42;24.60;68.10
22416;DHT22;12204;50.600;4.608;2022-09-09T21:09:46;24.50;68.10
22416;DHT22;12204;50.600;4.608;2022-09-09T21:14:51;24.60;68.30
22416;DHT22;12204;50.600;4.608;2022-09-09T21:19:54;24.60;68.50
22416;DHT22;12204;50.600;4.608;2022-09-09T21:24:58;24.60;68.50
22416;DHT22;12204;50.600;4.608;2022-09-09T21:30:03;24.60;68.70
22416;DHT22;12204;50.600;4.608;2022-09-09T21:35:08;24.60;68.70
22416;DHT22;12204;50.600;4.608;2022-09-09T21:46:09;24.60;68.90
22416;DHT22;12204;50.600;4.608;2022-09-09T21:51:15;24.60;68.90
22416;DHT22;12204;50.600;4.608;2022-09-09T21:56:19;24.50;68.90
22416;DHT22;12204;50.600;4.608;2022-09-09T22:01:25;24.50;68.80
22416;DHT22;12204;50.600;4.608;2022-09-09T22:06:29;24.50;68.90
22416;DHT22;12204;50.600;4.608;2022-09-09T22:11:33;24.50;69.00
22416;DHT22;12204;50.600;4.608;2022-09-09T22:16:38;24.50;69.10
22416;DHT22;12204;50.600;4.608;2022-09-09T22:21:41;24.50;69.30
22416;DHT22;12204;50.600;4.608;2022-09-09T22:26:45;24.60;69.60
22416;DHT22;12204;50.600;4.608;2022-09-09T22:31:50;24.60;69.60
22416;DHT22;12204;50.600;4.608;2022-09-09T22:36:54;24.60;69.60
22416;DHT22;12204;50.600;4.608;2022-09-09T22:41:57;24.60;69.70
22416;DHT22;12204;50.600;4.608;2022-09-09T22:47:03;24.60;69.80
22416;DHT22;12204;50.600;4.608;2022-09-09T22:52:07;24.50;69.80
22416;DHT22;12204;50.600;4.608;2022-09-09T22:57:11;24.60;70.00
22416;DHT22;12204;50.600;4.608;2022-09-09T23:02:16;24.60;69.90
22416;DHT22;12204;50.600;4.608;2022-09-09T23:07:21;24.60;69.80
22416;DHT22;12204;50.600;4.608;2022-09-09T23:12:24;24.60;69.60
22416;DHT22;12204;50.600;4.608;2022-09-09T23:17:30;24.60;69.70
22416;DHT22;12204;50.600;4.608;2022-09-09T23:22:35;24.60;69.50
22416;DHT22;12204;50.600;4.608;2022-09-09T23:27:40;24.60;69.50
22416;DHT22;12204;50.600;4.608;2022-09-09T23:32:47;24.60;69.40
22416;DHT22;12204;50.600;4.608;2022-09-09T23:37:51;24.60;69.00
22416;DHT22;12204;50.600;4.608;2022-09-09T23:42:55;24.60;69.00
22416;DHT22;12204;50.600;4.608;2022-09-09T23:48:00;24.60;69.10
22416;DHT22;12204;50.600;4.608;2022-09-09T23:53:04;24.60;70.00
22416;DHT22;12204;50.600;4.608;2022-09-09T23:58:09;24.60;69.50
